Time,TemperatureF,DewpointF,PressureIn,WindDirection,WindDirectionDegrees,WindSpeedMPH,WindSpeedGustMPH,Humidity,HourlyPrecipIn,Conditions,Clouds,dailyrainin,SoftwareType,DateUTC
2013-01-27 00:13:00,60.4,60.1,30.07,ESE,112,2.2,-999.0,99,-99.99,,,0.00,Acu-Link.com,2013-01-27 05:13:00,
2013-01-27 00:28:00,60.6,60.3,30.06,ESE,112,1.7,-999.0,99,-99.99,,,0.00,Acu-Link.com,2013-01-27 05:28:00,
2013-01-27 00:43:00,60.6,60.3,30.07,ESE,112,2.7,-999.0,99,-99.99,,,0.00,Acu-Link.com,2013-01-27 05:43:00,
2013-01-27 00:59:00,61.0,60.1,30.07,ESE,112,1.7,-999.0,97,-99.99,,,0.00,Acu-Link.com,2013-01-27 05:59:00,
2013-01-27 01:14:00,61.3,59.9,30.07,ESE,112,2.2,-999.0,95,-99.99,,,0.00,Acu-Link.com,2013-01-27 06:14:00,
2013-01-27 01:29:00,61.7,60.3,30.07,ESE,112,0.0,-999.0,95,-99.99,,,0.00,Acu-Link.com,2013-01-27 06:29:00,
2013-01-27 01:44:00,61.9,60.2,30.07,ESE,112,2.7,-999.0,94,-99.99,,,0.00,Acu-Link.com,2013-01-27 06:44:00,
2013-01-27 01:59:00,62.1,60.0,30.07,ESE,112,2.2,-999.0,93,-99.99,,,0.00,Acu-Link.com,2013-01-27 06:59:00,
2013-01-27 02:14:00,62.1,59.7,30.07,ESE,112,1.7,-999.0,92,-99.99,,,0.00,Acu-Link.com,2013-01-27 07:14:00,
2013-01-27 02:29:00,62.1,59.7,30.07,ESE,112,2.2,-999.0,92,-99.99,,,0.00,Acu-Link.com,2013-01-27 07:29:00,
2013-01-27 02:44:00,62.1,59.7,30.07,ESE,112,2.7,-999.0,92,-99.99,,,0.00,Acu-Link.com,2013-01-27 07:44:00,
2013-01-27 02:59:00,62.4,59.7,30.06,ESE,112,2.2,-999.0,91,-99.99,,,0.00,Acu-Link.com,2013-01-27 07:59:00,
2013-01-27 03:15:00,62.4,59.7,30.06,ESE,112,2.2,-999.0,91,-99.99,,,0.00,Acu-Link.com,2013-01-27 08:15:00,
2013-01-27 03:30:00,61.9,59.5,30.06,ESE,112,2.2,-999.0,92,-99.99,,,0.00,Acu-Link.com,2013-01-27 08:30:00,
2013-01-27 03:45:00,61.9,59.5,30.06,ESE,112,2.2,-999.0,92,-99.99,,,0.00,Acu-Link.com,2013-01-27 08:45:00,
2013-01-27 04:00:00,61.5,59.8,30.06,ESE,112,2.2,-999.0,94,-99.99,,,0.00,Acu-Link.com,2013-01-27 09:00:00,
2013-01-27 04:16:00,61.5,59.8,30.07,ESE,112,2.2,-999.0,94,-99.99,,,0.00,Acu-Link.com,2013-01-27 09:16:00,
2013-01-27 04:31:00,61.3,59.3,30.06,ESE,112,2.2,-999.0,93,-99.99,,,0.00,Acu-Link.com,2013-01-27 09:31:00,
2013-01-27 04:46:00,61.2,59.2,30.06,ESE,112,2.2,-999.0,93,-99.99,,,0.00,Acu-Link.com,2013-01-27 09:46:00,
2013-01-27 05:02:00,61.0,59.0,30.06,ESE,112,2.2,-999.0,93,-99.99,,,0.00,Acu-Link.com,2013-01-27 10:02:00,
2013-01-27 05:17:00,61.0,59.3,30.07,ESE,112,2.7,-999.0,94,-99.99,,,0.00,Acu-Link.com,2013-01-27 10:17:00,
2013-01-27 05:32:00,61.0,59.3,30.06,ESE,112,2.7,-999.0,94,-99.99,,,0.00,Acu-Link.com,2013-01-27 10:32:00,
2013-01-27 05:47:00,61.0,59.0,30.07,ESE,112,3.2,-999.0,93,-99.99,,,0.00,Acu-Link.com,2013-01-27 10:47:00,
2013-01-27 06:02:00,61.3,58.6,30.08,ESE,112,3.2,-999.0,91,-99.99,,,0.00,Acu-Link.com,2013-01-27 11:02:00,
2013-01-27 06:17:00,61.7,58.7,30.08,NNE,22,4.7,-999.0,90,-99.99,,,0.00,Acu-Link.com,2013-01-27 11:17:00,
2013-01-27 06:32:00,61.7,58.7,30.08,NNE,22,4.7,-999.0,90,-99.99,,,0.00,Acu-Link.com,2013-01-27 11:32:00,
2013-01-27 06:47:00,61.7,58.7,30.09,NNE,22,2.7,-999.0,90,-99.99,,,0.00,Acu-Link.com,2013-01-27 11:47:00,
2013-01-27 07:02:00,61.7,58.7,30.09,NNE,22,2.2,-999.0,90,-99.99,,,0.00,Acu-Link.com,2013-01-27 12:02:00,
2013-01-27 07:18:00,61.5,58.8,30.10,NNE,22,3.7,-999.0,91,-99.99,,,0.00,Acu-Link.com,2013-01-27 12:18:00,
2013-01-27 07:33:00,61.9,58.9,30.10,NNE,22,3.7,-999.0,90,-99.99,,,0.00,Acu-Link.com,2013-01-27 12:33:00,
2013-01-27 07:48:00,63.5,59.2,30.10,NNE,22,2.7,-999.0,86,-99.99,,,0.00,Acu-Link.com,2013-01-27 12:48:00,
2013-01-27 08:03:00,66.6,59.9,30.11,NNE,22,3.7,-999.0,79,-99.99,,,0.00,Acu-Link.com,2013-01-27 13:03:00,
2013-01-27 08:18:00,66.9,59.8,30.11,NNE,22,2.7,-999.0,78,-99.99,,,0.00,Acu-Link.com,2013-01-27 13:18:00,
2013-01-27 08:33:00,68.7,60.4,30.11,NE,45,2.7,-999.0,75,-99.99,,,0.00,Acu-Link.com,2013-01-27 13:33:00,
2013-01-27 08:48:00,70.0,61.3,30.12,NNE,22,2.7,-999.0,74,-99.99,,,0.00,Acu-Link.com,2013-01-27 13:48:00,
2013-01-27 09:03:00,71.4,61.5,30.12,NNE,22,3.7,-999.0,71,-99.99,,,0.00,Acu-Link.com,2013-01-27 14:03:00,
2013-01-27 09:18:00,72.5,61.7,30.12,NNE,22,2.7,-999.0,69,-99.99,,,0.00,Acu-Link.com,2013-01-27 14:18:00,
2013-01-27 09:34:00,73.4,61.3,30.13,NE,45,4.7,-999.0,66,-99.99,,,0.00,Acu-Link.com,2013-01-27 14:34:00,
2013-01-27 09:49:00,74.7,61.3,30.13,NE,45,3.7,-999.0,63,-99.99,,,0.00,Acu-Link.com,2013-01-27 14:49:00,
2013-01-27 10:04:00,75.7,60.3,30.13,East,90,6.3,-999.0,59,-99.99,,,0.00,Acu-Link.com,2013-01-27 15:04:00,
2013-01-27 10:19:00,75.9,59.6,30.13,ESE,112,7.8,-999.0,57,-99.99,,,0.00,Acu-Link.com,2013-01-27 15:19:00,
2013-01-27 10:34:00,76.6,59.2,30.13,ENE,67,10.4,-999.0,55,-99.99,,,0.00,Acu-Link.com,2013-01-27 15:34:00,
2013-01-27 10:49:00,77.4,59.4,30.14,ESE,112,3.7,-999.0,54,-99.99,,,0.00,Acu-Link.com,2013-01-27 15:49:00,
2013-01-27 11:05:00,77.2,59.2,30.13,NNE,22,8.3,-999.0,54,-99.99,,,0.00,Acu-Link.com,2013-01-27 16:05:00,
2013-01-27 11:20:00,77.2,58.7,30.13,ENE,67,7.8,-999.0,53,-99.99,,,0.00,Acu-Link.com,2013-01-27 16:20:00,
2013-01-27 11:35:00,77.4,59.4,30.12,East,90,8.9,-999.0,54,-99.99,,,0.00,Acu-Link.com,2013-01-27 16:35:00,
2013-01-27 11:50:00,77.0,58.5,30.13,ENE,67,9.9,-999.0,53,-99.99,,,0.00,Acu-Link.com,2013-01-27 16:50:00,
2013-01-27 12:05:00,75.7,59.9,30.13,ENE,67,14.0,-999.0,58,-99.99,,,0.00,Acu-Link.com,2013-01-27 17:05:00,
2013-01-27 12:20:00,76.1,58.7,30.11,ESE,112,6.3,-999.0,55,-99.99,,,0.00,Acu-Link.com,2013-01-27 17:20:00,
2013-01-27 12:35:00,77.2,59.2,30.10,NE,45,11.4,-999.0,54,-99.99,,,0.00,Acu-Link.com,2013-01-27 17:35:00,
2013-01-27 12:50:00,77.4,58.4,30.10,ESE,112,10.4,-999.0,52,-99.99,,,0.00,Acu-Link.com,2013-01-27 17:50:00,
2013-01-27 13:05:00,77.2,58.7,30.09,ESE,112,7.3,-999.0,53,-99.99,,,0.00,Acu-Link.com,2013-01-27 18:05:00,
2013-01-27 13:21:00,78.1,59.0,30.09,East,90,6.8,-999.0,52,-99.99,,,0.00,Acu-Link.com,2013-01-27 18:21:00,
2013-01-27 13:36:00,77.9,59.4,30.09,East,90,10.9,-999.0,53,-99.99,,,0.00,Acu-Link.com,2013-01-27 18:36:00,
2013-01-27 13:51:00,76.8,58.9,30.08,NE,45,6.8,-999.0,54,-99.99,,,0.00,Acu-Link.com,2013-01-27 18:51:00,
2013-01-27 14:06:00,76.6,58.2,30.08,ESE,112,8.9,-999.0,53,-99.99,,,0.00,Acu-Link.com,2013-01-27 19:06:00,
2013-01-27 14:21:00,76.8,58.9,30.08,ENE,67,7.3,-999.0,54,-99.99,,,0.00,Acu-Link.com,2013-01-27 19:21:00,
2013-01-27 14:36:00,77.2,58.7,30.08,East,90,8.9,-999.0,53,-99.99,,,0.00,Acu-Link.com,2013-01-27 19:36:00,
2013-01-27 14:51:00,77.0,58.5,30.07,ESE,112,12.5,-999.0,53,-99.99,,,0.00,Acu-Link.com,2013-01-27 19:51:00,
2013-01-27 15:06:00,76.8,57.8,30.06,ESE,112,6.3,-999.0,52,-99.99,,,0.00,Acu-Link.com,2013-01-27 20:06:00,
2013-01-27 15:22:00,76.8,58.9,30.08,East,90,5.3,-999.0,54,-99.99,,,0.00,Acu-Link.com,2013-01-27 20:22:00,
2013-01-27 15:37:00,75.9,58.0,30.07,ESE,112,5.3,-999.0,54,-99.99,,,0.00,Acu-Link.com,2013-01-27 20:37:00,
2013-01-27 15:52:00,76.3,58.4,30.07,ENE,67,6.3,-999.0,54,-99.99,,,0.00,Acu-Link.com,2013-01-27 20:52:00,
2013-01-27 16:07:00,75.9,58.0,30.08,East,90,8.3,-999.0,54,-99.99,,,0.00,Acu-Link.com,2013-01-27 21:07:00,
2013-01-27 16:22:00,75.6,57.8,30.08,ESE,112,9.9,-999.0,54,-99.99,,,0.00,Acu-Link.com,2013-01-27 21:22:00,
2013-01-27 16:37:00,75.4,57.6,30.08,SSE,157,5.3,-999.0,54,-99.99,,,0.00,Acu-Link.com,2013-01-27 21:37:00,
2013-01-27 16:52:00,75.0,57.7,30.08,East,90,8.9,-999.0,55,-99.99,,,0.00,Acu-Link.com,2013-01-27 21:52:00,
2013-01-27 17:07:00,74.5,57.8,30.09,ENE,67,10.4,-999.0,56,-99.99,,,0.00,Acu-Link.com,2013-01-27 22:07:00,
2013-01-27 17:22:00,73.9,58.2,30.09,ENE,67,3.2,-999.0,58,-99.99,,,0.00,Acu-Link.com,2013-01-27 22:22:00,
2013-01-27 17:38:00,74.1,58.4,30.10,ESE,112,4.7,-999.0,58,-99.99,,,0.00,Acu-Link.com,2013-01-27 22:38:00,
2013-01-27 17:53:00,73.2,58.5,30.10,NE,45,4.7,-999.0,60,-99.99,,,0.00,Acu-Link.com,2013-01-27 22:53:00,
2013-01-27 18:08:00,72.3,59.0,30.09,East,90,5.8,-999.0,63,-99.99,,,0.00,Acu-Link.com,2013-01-27 23:08:00,
2013-01-27 18:23:00,71.8,59.0,30.10,East,90,8.3,-999.0,64,-99.99,,,0.00,Acu-Link.com,2013-01-27 23:23:00,
2013-01-27 18:38:00,71.4,59.0,30.10,East,90,2.2,-999.0,65,-99.99,,,0.00,Acu-Link.com,2013-01-27 23:38:00,
2013-01-27 18:53:00,71.2,59.2,30.11,East,90,2.7,-999.0,66,-99.99,,,0.00,Acu-Link.com,2013-01-27 23:53:00,
2013-01-27 19:08:00,71.2,59.7,30.11,East,90,4.7,-999.0,67,-99.99,,,0.00,Acu-Link.com,2013-01-28 00:08:00,
2013-01-27 19:24:00,71.2,60.1,30.12,East,90,4.7,-999.0,68,-99.99,,,0.00,Acu-Link.com,2013-01-28 00:24:00,
2013-01-27 19:39:00,71.2,60.5,30.12,ESE,112,2.7,-999.0,69,-99.99,,,0.00,Acu-Link.com,2013-01-28 00:39:00,
2013-01-27 19:54:00,71.1,61.6,30.12,ESE,112,4.2,-999.0,72,-99.99,,,0.00,Acu-Link.com,2013-01-28 00:54:00,
2013-01-27 20:09:00,71.1,62.0,30.12,ESE,112,7.3,-999.0,73,-99.99,,,0.00,Acu-Link.com,2013-01-28 01:09:00,
2013-01-27 20:24:00,71.1,62.0,30.13,ESE,112,3.2,-999.0,73,-99.99,,,0.00,Acu-Link.com,2013-01-28 01:24:00,
2013-01-27 20:39:00,71.2,62.1,30.13,ESE,112,4.7,-999.0,73,-99.99,,,0.00,Acu-Link.com,2013-01-28 01:39:00,
2013-01-27 20:54:00,71.2,62.1,30.13,ESE,112,6.3,-999.0,73,-99.99,,,0.00,Acu-Link.com,2013-01-28 01:54:00,
2013-01-27 21:09:00,71.4,62.3,30.14,ESE,112,4.7,-999.0,73,-99.99,,,0.00,Acu-Link.com,2013-01-28 02:09:00,
2013-01-27 21:24:00,71.4,62.3,30.14,SE,135,7.3,-999.0,73,-99.99,,,0.00,Acu-Link.com,2013-01-28 02:24:00,
2013-01-27 21:40:00,71.6,62.5,30.14,East,90,6.8,-999.0,73,-99.99,,,0.00,Acu-Link.com,2013-01-28 02:40:00,
2013-01-27 21:55:00,71.6,62.5,30.14,East,90,2.7,-999.0,73,-99.99,,,0.00,Acu-Link.com,2013-01-28 02:55:00,
2013-01-27 22:10:00,71.1,62.0,30.15,ESE,112,4.2,-999.0,73,-99.99,,,0.00,Acu-Link.com,2013-01-28 03:10:00,
2013-01-27 22:25:00,71.1,62.0,30.14,NE,45,2.7,-999.0,73,-99.99,,,0.00,Acu-Link.com,2013-01-28 03:25:00,
2013-01-27 22:40:00,71.1,62.4,30.15,ESE,112,5.8,-999.0,74,-99.99,,,0.00,Acu-Link.com,2013-01-28 03:40:00,
2013-01-27 22:55:00,71.2,62.5,30.14,East,90,4.2,-999.0,74,-99.99,,,0.00,Acu-Link.com,2013-01-28 03:55:00,
2013-01-27 23:10:00,71.2,62.9,30.13,East,90,5.3,-999.0,75,-99.99,,,0.00,Acu-Link.com,2013-01-28 04:10:00,
2013-01-27 23:25:00,71.2,62.9,30.13,ENE,67,4.7,-999.0,75,-99.99,,,0.00,Acu-Link.com,2013-01-28 04:25:00,
2013-01-27 23:40:00,71.6,63.2,30.14,ESE,112,5.3,-999.0,75,-99.99,,,0.00,Acu-Link.com,2013-01-28 04:40:00,
2013-01-27 23:56:00,71.4,62.7,30.12,East,90,9.4,-999.0,74,-99.99,,,0.00,Acu-Link.com,2013-01-28 04:56:00,